Time;durP1;ratioP1;P1;durP2;ratioP2;P2;SDS_P1;SDS_P2;PMS_P1;PMS_P2;Temp;Humidity;BMP_temperature;BMP_pressure;BME280_temperature;BME280_humidity;BME280_pressure;Samples;Min_cycle;Max_cycle;Signal;HPM_P1;HPM_P2
2021/07/10 00:01:20;;;;;;;20.77;14.80;;;;;;;;;;5083614;28;20435;-74
2021/07/10 00:03:46;;;;;;;20.00;15.40;;;;;;;;;;5074986;28;20942;-73
2021/07/10 00:06:12;;;;;;;18.27;14.40;;;;;;;;;;5075052;28;20476;-75
2021/07/10 00:08:38;;;;;;;20.03;14.23;;;;;;;;;;5074759;28;20500;-73
2021/07/10 00:11:05;;;;;;;16.50;13.93;;;;;;;;;;5074929;28;20433;-74
2021/07/10 00:13:31;;;;;;;15.77;13.80;;;;;;;;;;5074905;28;20799;-75
2021/07/10 00:15:57;;;;;;;19.37;15.03;;;;;;;;;;5074842;28;20500;-74
2021/07/10 00:18:23;;;;;;;18.33;14.93;;;;;;;;;;5074095;28;20472;-73
2021/07/10 00:20:49;;;;;;;18.73;14.20;;;;;;;;;;5074875;28;20441;-72
2021/07/10 00:23:16;;;;;;;17.40;13.20;;;;;;;;;;5074809;28;20470;-73
2021/07/10 00:25:42;;;;;;;18.37;13.43;;;;;;;;;;5075016;28;20456;-74
2021/07/10 00:28:08;;;;;;;18.43;14.50;;;;;;;;;;5074090;28;20489;-74
2021/07/10 00:30:34;;;;;;;19.00;14.27;;;;;;;;;;5074244;28;20437;-73
2021/07/10 00:33:02;;;;;;;15.43;13.63;;;;;;;;;;5074700;28;20437;-74
2021/07/10 00:35:28;;;;;;;17.93;14.30;;;;;;;;;;5074835;28;20751;-72
2021/07/10 00:37:54;;;;;;;17.40;14.43;;;;;;;;;;5074097;28;20503;-74
2021/07/10 00:40:20;;;;;;;17.30;13.30;;;;;;;;;;5074023;28;20470;-73
2021/07/10 00:42:46;;;;;;;18.63;14.00;;;;;;;;;;5073979;28;20497;-73
2021/07/10 00:45:13;;;;;;;16.00;13.00;;;;;;;;;;5074019;28;20410;-74
2021/07/10 00:47:40;;;;;;;18.73;13.20;;;;;;;;;;5073896;28;20507;-74
2021/07/10 00:50:08;;;;;;;17.57;14.27;;;;;;;;;;5074480;28;20760;-72
2021/07/10 00:52:34;;;;;;;17.17;13.80;;;;;;;;;;5060701;28;20408;-72
2021/07/10 00:55:01;;;;;;;15.47;13.47;;;;;;;;;;5073818;28;20453;-74
2021/07/10 00:57:27;;;;;;;16.30;13.40;;;;;;;;;;5080286;28;20460;-74
2021/07/10 00:59:53;;;;;;;18.07;14.60;;;;;;;;;;5094050;28;20789;-73
2021/07/10 01:02:19;;;;;;;18.13;14.77;;;;;;;;;;5094123;28;20530;-72
2021/07/10 01:04:45;;;;;;;18.40;14.23;;;;;;;;;;5094169;28;20877;-71
2021/07/10 01:07:11;;;;;;;18.10;14.13;;;;;;;;;;5093624;28;21074;-72
2021/07/10 01:09:37;;;;;;;19.03;14.40;;;;;;;;;;5094054;28;20412;-72
2021/07/10 01:12:03;;;;;;;18.50;13.57;;;;;;;;;;5080125;28;20810;-72
2021/07/10 01:14:29;;;;;;;18.57;14.57;;;;;;;;;;5093886;28;20415;-74
2021/07/10 01:16:55;;;;;;;17.23;14.33;;;;;;;;;;5092889;28;20427;-73
2021/07/10 01:19:26;;;;;;;20.33;14.97;;;;;;;;;;5093485;28;20412;-74
2021/07/10 01:21:53;;;;;;;18.03;14.80;;;;;;;;;;5060448;28;20402;-71
2021/07/10 01:24:19;;;;;;;16.97;13.30;;;;;;;;;;5073406;28;20406;-72
2021/07/10 01:26:45;;;;;;;21.30;14.67;;;;;;;;;;5072967;28;20963;-73
2021/07/10 01:29:11;;;;;;;18.20;14.23;;;;;;;;;;5073251;28;20417;-72
2021/07/10 01:31:38;;;;;;;23.60;16.83;;;;;;;;;;5073312;28;20425;-73
2021/07/10 01:34:04;;;;;;;18.10;15.03;;;;;;;;;;5073172;28;20419;-72
2021/07/10 01:36:30;;;;;;;19.20;15.27;;;;;;;;;;5073511;28;20421;-73
2021/07/10 01:38:57;;;;;;;20.30;15.27;;;;;;;;;;5071994;28;20421;-73
2021/07/10 01:41:23;;;;;;;17.27;13.07;;;;;;;;;;5080427;28;20440;-72
2021/07/10 01:43:49;;;;;;;16.57;14.17;;;;;;;;;;5090652;28;20421;-72
2021/07/10 01:46:15;;;;;;;20.37;15.20;;;;;;;;;;5073311;28;20491;-71
2021/07/10 01:48:41;;;;;;;18.60;14.47;;;;;;;;;;5073188;28;20412;-72
2021/07/10 01:51:07;;;;;;;19.93;14.37;;;;;;;;;;5072936;28;20425;-74
2021/07/10 01:53:33;;;;;;;19.57;14.77;;;;;;;;;;5073191;28;20488;-72
2021/07/10 01:55:59;;;;;;;19.40;13.87;;;;;;;;;;5072832;28;20512;-74
2021/07/10 01:58:25;;;;;;;19.80;15.70;;;;;;;;;;5086874;28;20766;-72
2021/07/10 02:00:51;;;;;;;21.90;14.70;;;;;;;;;;5093396;28;20536;-72
2021/07/10 02:03:17;;;;;;;15.83;13.80;;;;;;;;;;5093392;28;20452;-73
2021/07/10 02:05:44;;;;;;;19.47;14.50;;;;;;;;;;5093168;28;20553;-73
2021/07/10 02:08:10;;;;;;;20.87;15.73;;;;;;;;;;5092789;28;20415;-73
2021/07/10 02:10:36;;;;;;;18.93;14.57;;;;;;;;;;5085552;28;20477;-74
2021/07/10 02:13:12;;;;;;;21.50;16.07;;;;;;;;;;5073376;28;20502;-74
2021/07/10 02:15:39;;;;;;;21.80;15.80;;;;;;;;;;5072963;28;20500;-73
2021/07/10 02:18:05;;;;;;;22.10;15.07;;;;;;;;;;5072708;28;20409;-74
2021/07/10 02:20:31;;;;;;;19.57;15.60;;;;;;;;;;5082145;28;20430;-75
2021/07/10 02:22:58;;;;;;;19.67;14.90;;;;;;;;;;5093003;28;20443;-73
2021/07/10 02:25:25;;;;;;;20.70;15.67;;;;;;;;;;5092910;28;20408;-75
2021/07/10 02:27:51;;;;;;;20.87;15.67;;;;;;;;;;5091171;28;20416;-73
2021/07/10 02:30:19;;;;;;;21.40;16.87;;;;;;;;;;5076815;28;20437;-72
2021/07/10 02:32:46;;;;;;;19.63;15.10;;;;;;;;;;5076805;28;20412;-73
2021/07/10 02:35:13;;;;;;;20.93;15.80;;;;;;;;;;5076871;28;20409;-72
2021/07/10 02:37:40;;;;;;;19.50;15.40;;;;;;;;;;5076142;28;20427;-73
2021/07/10 02:40:07;;;;;;;21.33;15.67;;;;;;;;;;5077076;28;20428;-73
2021/07/10 02:42:33;;;;;;;21.10;15.13;;;;;;;;;;5076750;28;20787;-73
2021/07/10 02:44:59;;;;;;;19.00;14.90;;;;;;;;;;5076498;28;20419;-75
2021/07/10 02:47:25;;;;;;;24.03;15.47;;;;;;;;;;5075918;28;20955;-74
2021/07/10 02:49:51;;;;;;;17.67;14.90;;;;;;;;;;5076565;28;20794;-73
2021/07/10 02:52:17;;;;;;;18.47;13.53;;;;;;;;;;5076347;28;20412;-73
2021/07/10 02:54:43;;;;;;;15.80;14.07;;;;;;;;;;5076156;28;20415;-73
2021/07/10 02:57:09;;;;;;;20.30;14.27;;;;;;;;;;5079902;28;20415;-73
2021/07/10 02:59:36;;;;;;;16.70;13.63;;;;;;;;;;5096628;28;20425;-73
2021/07/10 03:02:03;;;;;;;19.67;14.10;;;;;;;;;;5096631;28;20455;-72
2021/07/10 03:04:29;;;;;;;16.23;13.20;;;;;;;;;;5096725;28;20435;-74
2021/07/10 03:06:55;;;;;;;18.97;13.53;;;;;;;;;;5095750;28;20463;-74
2021/07/10 03:09:21;;;;;;;18.03;14.53;;;;;;;;;;5095296;28;20467;-73
2021/07/10 03:11:48;;;;;;;14.70;12.60;;;;;;;;;;5096237;28;20508;-73
2021/07/10 03:14:15;;;;;;;15.80;13.60;;;;;;;;;;5096191;28;20408;-72
2021/07/10 03:16:41;;;;;;;15.90;14.30;;;;;;;;;;5095668;28;20415;-72
2021/07/10 03:19:07;;;;;;;18.53;14.13;;;;;;;;;;5096227;28;20416;-72
2021/07/10 03:21:33;;;;;;;18.40;13.40;;;;;;;;;;5095784;28;20432;-72
2021/07/10 03:23:59;;;;;;;16.60;12.70;;;;;;;;;;5095811;28;20809;-71
2021/07/10 03:26:25;;;;;;;18.70;14.23;;;;;;;;;;5095859;28;20466;-73
2021/07/10 03:28:51;;;;;;;14.23;12.73;;;;;;;;;;5086585;28;20751;-74
2021/07/10 03:31:18;;;;;;;20.63;13.67;;;;;;;;;;5075404;28;20437;-73
2021/07/10 03:33:44;;;;;;;15.40;12.80;;;;;;;;;;5075464;28;20413;-73
2021/07/10 03:36:14;;;;;;;16.30;12.07;;;;;;;;;;5075230;28;20420;-74
2021/07/10 03:38:43;;;;;;;16.30;12.67;;;;;;;;;;5074766;28;20425;-72
2021/07/10 03:41:10;;;;;;;18.20;14.03;;;;;;;;;;5075595;28;20443;-74
2021/07/10 03:43:35;;;;;;;15.00;12.03;;;;;;;;;;5075590;28;20409;-72
2021/07/10 03:46:03;;;;;;;15.77;12.00;;;;;;;;;;5075270;28;20870;-74
2021/07/10 03:48:30;;;;;;;15.40;12.40;;;;;;;;;;5075110;28;20413;-74
2021/07/10 03:50:56;;;;;;;19.63;13.57;;;;;;;;;;5075083;28;20441;-72
2021/07/10 03:53:22;;;;;;;14.20;12.40;;;;;;;;;;5075462;28;20500;-73
2021/07/10 03:55:49;;;;;;;17.30;13.17;;;;;;;;;;5074947;28;20501;-74
2021/07/10 03:58:15;;;;;;;18.83;13.23;;;;;;;;;;5087499;28;20409;-73
2021/07/10 04:00:41;;;;;;;17.60;14.00;;;;;;;;;;5095224;28;20450;-73
2021/07/10 04:03:07;;;;;;;14.80;12.53;;;;;;;;;;5095345;28;20412;-74
2021/07/10 04:05:33;;;;;;;16.87;14.27;;;;;;;;;;5095162;28;20425;-73
2021/07/10 04:08:00;;;;;;;15.80;13.73;;;;;;;;;;5095086;28;20804;-74
2021/07/10 04:10:26;;;;;;;18.50;14.37;;;;;;;;;;5095056;28;20432;-74
2021/07/10 04:12:52;;;;;;;14.63;12.37;;;;;;;;;;5095332;28;20825;-74
2021/07/10 04:15:18;;;;;;;16.20;13.57;;;;;;;;;;5095325;28;20415;-74
2021/07/10 04:17:45;;;;;;;17.60;13.53;;;;;;;;;;5094793;28;20411;-72
2021/07/10 04:20:11;;;;;;;21.67;14.53;;;;;;;;;;5088802;28;20890;-73
2021/07/10 04:22:37;;;;;;;16.90;13.20;;;;;;;;;;5074786;28;20418;-75
2021/07/10 04:25:05;;;;;;;16.20;12.70;;;;;;;;;;5073157;28;20431;-74
2021/07/10 04:27:31;;;;;;;18.57;13.10;;;;;;;;;;5073941;28;20487;-75
2021/07/10 04:29:58;;;;;;;18.73;13.40;;;;;;;;;;5074251;28;20516;-75
2021/07/10 04:32:24;;;;;;;15.43;13.67;;;;;;;;;;5074375;28;20763;-73
2021/07/10 04:34:50;;;;;;;14.50;12.70;;;;;;;;;;5074310;28;20417;-73
2021/07/10 04:37:16;;;;;;;14.27;12.77;;;;;;;;;;5074173;28;20416;-75
2021/07/10 04:39:42;;;;;;;14.73;12.30;;;;;;;;;;5074541;28;20745;-75
2021/07/10 04:42:08;;;;;;;16.37;13.13;;;;;;;;;;5074277;28;20443;-75
2021/07/10 04:44:35;;;;;;;13.80;11.80;;;;;;;;;;5074055;28;20412;-74
2021/07/10 04:47:01;;;;;;;13.23;11.73;;;;;;;;;;5073875;28;20852;-74
2021/07/10 04:49:27;;;;;;;13.30;10.60;;;;;;;;;;5073989;28;20470;-73
2021/07/10 04:51:53;;;;;;;12.40;11.10;;;;;;;;;;5073987;28;20449;-73
2021/07/10 04:54:19;;;;;;;12.43;10.97;;;;;;;;;;5074009;28;20489;-73
2021/07/10 04:56:45;;;;;;;13.90;11.37;;;;;;;;;;5064170;28;20452;-74
2021/07/10 04:59:11;;;;;;;13.97;11.23;;;;;;;;;;5094133;28;20418;-72
2021/07/10 05:01:38;;;;;;;12.20;10.97;;;;;;;;;;5080215;28;20499;-74
2021/07/10 05:04:04;;;;;;;12.73;10.47;;;;;;;;;;5074055;28;20417;-73
2021/07/10 05:06:30;;;;;;;11.23;10.10;;;;;;;;;;5073583;28;20469;-74
2021/07/10 05:08:56;;;;;;;11.87;10.50;;;;;;;;;;5073391;28;20474;-75
2021/07/10 05:11:22;;;;;;;12.30;10.93;;;;;;;;;;5073802;28;20429;-74
2021/07/10 05:13:48;;;;;;;12.23;10.30;;;;;;;;;;5073894;28;20893;-75
2021/07/10 05:16:14;;;;;;;13.33;10.57;;;;;;;;;;5073616;28;20530;-75
2021/07/10 05:18:40;;;;;;;12.40;10.30;;;;;;;;;;5073214;28;20458;-73
2021/07/10 05:21:06;;;;;;;12.57;10.00;;;;;;;;;;5086988;28;20427;-75
2021/07/10 05:23:32;;;;;;;10.63;9.53;;;;;;;;;;5093847;28;20408;-72
2021/07/10 05:25:58;;;;;;;11.47;10.30;;;;;;;;;;5093631;28;20488;-73
2021/07/10 05:28:24;;;;;;;10.10;9.10;;;;;;;;;;5087977;28;20420;-72
2021/07/10 05:30:50;;;;;;;11.37;9.63;;;;;;;;;;5073087;28;20434;-74
2021/07/10 05:33:19;;;;;;;12.70;10.47;;;;;;;;;;5073668;28;20413;-73
2021/07/10 05:35:45;;;;;;;11.27;9.90;;;;;;;;;;5073557;28;20784;-72
2021/07/10 05:38:11;;;;;;;10.40;9.40;;;;;;;;;;5073194;28;20492;-73
2021/07/10 05:40:37;;;;;;;14.10;11.20;;;;;;;;;;5074128;28;20430;-72
2021/07/10 05:43:03;;;;;;;11.37;10.17;;;;;;;;;;5093207;28;20409;-72
2021/07/10 05:45:29;;;;;;;13.90;10.80;;;;;;;;;;5076480;28;20418;-73
2021/07/10 05:47:55;;;;;;;13.93;10.60;;;;;;;;;;5073130;28;20825;-71
2021/07/10 05:50:22;;;;;;;11.13;10.00;;;;;;;;;;5074657;28;20444;-73
2021/07/10 05:52:48;;;;;;;10.87;9.77;;;;;;;;;;5093226;28;20417;-72
2021/07/10 05:55:14;;;;;;;14.20;9.87;;;;;;;;;;5085730;28;20887;-72
2021/07/10 05:57:40;;;;;;;11.00;9.90;;;;;;;;;;5080584;28;20412;-72
2021/07/10 06:00:10;;;;;;;10.30;9.20;;;;;;;;;;5093326;28;20436;-72
2021/07/10 06:02:37;;;;;;;13.80;9.23;;;;;;;;;;5091881;28;20464;-73
2021/07/10 06:05:04;;;;;;;9.43;8.47;;;;;;;;;;5093004;28;20901;-74
2021/07/10 06:07:30;;;;;;;10.20;9.10;;;;;;;;;;5092922;28;20991;-74
2021/07/10 06:09:56;;;;;;;11.93;8.90;;;;;;;;;;5091361;28;20498;-74
2021/07/10 06:12:22;;;;;;;10.00;8.77;;;;;;;;;;5072792;28;20419;-72
2021/07/10 06:14:48;;;;;;;9.70;8.40;;;;;;;;;;5072743;28;20409;-72
2021/07/10 06:17:14;;;;;;;9.63;8.70;;;;;;;;;;5072435;28;20464;-74
2021/07/10 06:19:40;;;;;;;9.47;8.57;;;;;;;;;;5075012;28;20748;-72
2021/07/10 06:22:06;;;;;;;11.60;9.00;;;;;;;;;;5093132;28;20417;-74
2021/07/10 06:24:32;;;;;;;9.30;7.57;;;;;;;;;;5093202;28;20437;-74
2021/07/10 06:26:58;;;;;;;8.80;7.63;;;;;;;;;;5092427;28;20832;-74
2021/07/10 06:29:24;;;;;;;8.53;7.53;;;;;;;;;;5078081;28;20417;-74
2021/07/10 06:31:50;;;;;;;10.00;7.93;;;;;;;;;;5072927;28;20757;-74
2021/07/10 06:34:16;;;;;;;8.70;7.80;;;;;;;;;;5072761;28;20418;-73
2021/07/10 06:36:42;;;;;;;8.63;7.77;;;;;;;;;;5072529;28;20419;-73
2021/07/10 06:39:08;;;;;;;9.53;8.20;;;;;;;;;;5072641;28;20411;-72
2021/07/10 06:41:36;;;;;;;9.40;8.50;;;;;;;;;;5072674;28;20958;-75
2021/07/10 06:44:03;;;;;;;11.30;8.90;;;;;;;;;;5072675;28;20414;-73
2021/07/10 06:46:28;;;;;;;8.97;8.03;;;;;;;;;;5072493;28;20565;-73
2021/07/10 06:48:55;;;;;;;8.73;7.93;;;;;;;;;;5071895;28;20501;-74
2021/07/10 06:51:21;;;;;;;15.87;14.13;;;;;;;;;;5072602;28;20449;-72
2021/07/10 06:53:47;;;;;;;9.07;8.17;;;;;;;;;;5072291;28;20411;-74
2021/07/10 06:56:13;;;;;;;10.07;9.03;;;;;;;;;;5072517;28;20414;-74
2021/07/10 06:58:39;;;;;;;10.17;8.50;;;;;;;;;;5088254;28;20631;-74
2021/07/10 07:01:05;;;;;;;8.80;7.97;;;;;;;;;;5092608;28;20433;-73
2021/07/10 07:03:32;;;;;;;8.87;7.50;;;;;;;;;;5092418;28;20523;-73
2021/07/10 07:05:58;;;;;;;9.70;8.70;;;;;;;;;;5092622;28;20468;-74
2021/07/10 07:08:24;;;;;;;8.93;8.13;;;;;;;;;;5092081;28;20410;-73
2021/07/10 07:10:50;;;;;;;7.93;7.17;;;;;;;;;;5092744;28;20455;-75
2021/07/10 07:13:16;;;;;;;7.83;7.17;;;;;;;;;;5093066;28;20417;-73
2021/07/10 07:15:43;;;;;;;7.87;7.13;;;;;;;;;;5096384;28;20417;-73
2021/07/10 07:18:09;;;;;;;8.70;7.27;;;;;;;;;;5095814;28;20409;-75
2021/07/10 07:20:35;;;;;;;8.03;7.37;;;;;;;;;;5086827;28;20434;-73
2021/07/10 07:23:01;;;;;;;7.50;6.80;;;;;;;;;;5075706;28;20501;-74
2021/07/10 07:25:27;;;;;;;7.90;7.10;;;;;;;;;;5076011;28;20414;-74
2021/07/10 07:27:54;;;;;;;8.70;7.90;;;;;;;;;;5075215;28;20473;-74
2021/07/10 07:30:21;;;;;;;7.57;6.77;;;;;;;;;;5076012;28;20475;-72
2021/07/10 07:32:47;;;;;;;7.30;6.60;;;;;;;;;;5075621;28;20417;-72
2021/07/10 07:35:15;;;;;;;7.87;7.17;;;;;;;;;;5075741;28;20407;-74
2021/07/10 07:37:41;;;;;;;7.00;6.40;;;;;;;;;;5074947;28;20947;-75
2021/07/10 07:40:08;;;;;;;7.83;7.13;;;;;;;;;;5075499;28;20919;-74
2021/07/10 07:42:34;;;;;;;7.23;6.60;;;;;;;;;;5075856;28;20438;-76
2021/07/10 07:45:00;;;;;;;7.50;6.77;;;;;;;;;;5075510;28;20822;-73
2021/07/10 07:47:26;;;;;;;7.57;6.77;;;;;;;;;;5074887;28;20543;-74
2021/07/10 07:49:52;;;;;;;6.93;6.23;;;;;;;;;;5075029;28;20426;-74
2021/07/10 07:52:18;;;;;;;6.93;6.37;;;;;;;;;;5075297;28;20420;-74
2021/07/10 07:54:44;;;;;;;6.87;6.27;;;;;;;;;;5075442;28;20406;-74
2021/07/10 07:57:10;;;;;;;7.13;6.47;;;;;;;;;;5078251;28;20493;-73
2021/07/10 07:59:37;;;;;;;6.40;5.90;;;;;;;;;;5094064;28;20845;-73
2021/07/10 08:02:03;;;;;;;6.73;6.00;;;;;;;;;;5095043;28;20417;-74
2021/07/10 08:04:29;;;;;;;6.17;5.30;;;;;;;;;;5095171;28;20493;-72
2021/07/10 08:06:55;;;;;;;7.30;6.33;;;;;;;;;;5094629;28;20825;-73
2021/07/10 08:09:21;;;;;;;6.07;5.47;;;;;;;;;;5095207;28;20408;-74
2021/07/10 08:11:47;;;;;;;6.43;5.83;;;;;;;;;;5095357;28;20430;-72
2021/07/10 08:14:13;;;;;;;6.30;5.40;;;;;;;;;;5093780;28;20421;-73
2021/07/10 08:16:39;;;;;;;6.33;5.73;;;;;;;;;;5094780;28;20420;-73
2021/07/10 08:19:05;;;;;;;7.70;5.30;;;;;;;;;;5095272;28;20412;-72
2021/07/10 08:21:33;;;;;;;5.97;5.50;;;;;;;;;;5081400;28;20433;-73
2021/07/10 08:23:59;;;;;;;8.20;7.40;;;;;;;;;;5095095;28;20451;-73
2021/07/10 08:26:26;;;;;;;7.70;6.90;;;;;;;;;;5094952;28;20479;-74
2021/07/10 08:28:52;;;;;;;8.70;7.93;;;;;;;;;;5085361;28;20453;-73
2021/07/10 08:31:18;;;;;;;10.00;9.00;;;;;;;;;;5074586;28;20434;-74
2021/07/10 08:33:44;;;;;;;8.33;7.53;;;;;;;;;;5074559;28;20461;-74
2021/07/10 08:36:10;;;;;;;8.50;7.70;;;;;;;;;;5074343;28;20937;-75
2021/07/10 08:38:37;;;;;;;9.27;8.37;;;;;;;;;;5073890;28;20416;-71
2021/07/10 08:41:05;;;;;;;8.80;7.90;;;;;;;;;;5074390;28;20438;-74
2021/07/10 08:43:31;;;;;;;7.40;6.80;;;;;;;;;;5073912;28;20426;-71
2021/07/10 08:46:01;;;;;;;8.30;7.60;;;;;;;;;;5073879;28;20454;-73
2021/07/10 08:48:27;;;;;;;8.60;7.80;;;;;;;;;;5073462;28;20411;-72
2021/07/10 08:50:54;;;;;;;7.77;6.97;;;;;;;;;;5092633;28;20921;-73
2021/07/10 08:53:21;;;;;;;8.23;7.47;;;;;;;;;;5094456;28;20423;-73
2021/07/10 08:55:50;;;;;;;8.07;7.27;;;;;;;;;;5081857;28;20460;-75
2021/07/10 08:58:16;;;;;;;8.50;7.60;;;;;;;;;;5086231;28;20416;-75
2021/07/10 09:00:42;;;;;;;7.20;6.60;;;;;;;;;;5093934;28;20433;-73
2021/07/10 09:03:09;;;;;;;7.63;6.97;;;;;;;;;;5094215;28;20449;-74
2021/07/10 09:05:35;;;;;;;7.93;7.23;;;;;;;;;;5086472;28;20430;-74
2021/07/10 09:08:17;;;;;;;8.83;7.10;;;;;;;;;;5073683;28;21003;-73
2021/07/10 09:10:44;;;;;;;9.50;7.70;;;;;;;;;;5081940;28;20436;-74
2021/07/10 09:13:11;;;;;;;8.73;7.93;;;;;;;;;;5094096;28;20401;-72
2021/07/10 09:15:37;;;;;;;7.83;7.13;;;;;;;;;;5078774;28;20854;-74
2021/07/10 09:18:07;;;;;;;7.70;7.10;;;;;;;;;;5069469;28;20419;-75
2021/07/10 09:20:33;;;;;;;7.43;6.73;;;;;;;;;;5069918;28;20430;-74
2021/07/10 09:22:59;;;;;;;8.47;6.70;;;;;;;;;;5085758;28;21098;-73
2021/07/10 09:25:26;;;;;;;8.00;7.37;;;;;;;;;;5090178;28;20434;-73
2021/07/10 09:27:53;;;;;;;8.13;7.40;;;;;;;;;;5088953;28;21261;-72
2021/07/10 09:30:32;;;;;;;6.90;6.40;;;;;;;;;;5069776;28;20430;-75
2021/07/10 09:33:16;;;;;;;8.20;7.50;;;;;;;;;;5068271;28;20406;-73
2021/07/10 09:35:48;;;;;;;7.73;6.87;;;;;;;;;;5069436;28;20488;-73
2021/07/10 09:38:26;;;;;;;7.60;6.93;;;;;;;;;;5069100;28;20418;-74
2021/07/10 09:40:56;;;;;;;7.67;7.07;;;;;;;;;;5069388;28;20422;-73
2021/07/10 09:43:23;;;;;;;6.57;6.07;;;;;;;;;;5069760;28;20410;-73
2021/07/10 09:45:49;;;;;;;7.73;6.80;;;;;;;;;;5068029;28;20778;-73
2021/07/10 09:48:15;;;;;;;9.00;8.20;;;;;;;;;;5069265;28;20760;-73
2021/07/10 09:50:41;;;;;;;7.73;7.03;;;;;;;;;;5069215;28;20441;-74
2021/07/10 09:53:21;;;;;;;7.67;7.07;;;;;;;;;;5069459;28;20410;-75
2021/07/10 09:55:47;;;;;;;7.80;7.10;;;;;;;;;;5069348;28;20876;-73
2021/07/10 09:58:30;;;;;;;7.37;6.70;;;;;;;;;;5069233;28;20420;-73
2021/07/10 10:00:56;;;;;;;7.57;6.87;;;;;;;;;;5069395;28;20453;-75
2021/07/10 10:03:32;;;;;;;7.20;6.50;;;;;;;;;;5069194;28;20438;-74
2021/07/10 10:05:58;;;;;;;7.67;7.03;;;;;;;;;;5069180;28;20430;-73
2021/07/10 10:08:34;;;;;;;7.43;6.90;;;;;;;;;;5071020;28;20787;-73
2021/07/10 10:11:00;;;;;;;8.17;7.37;;;;;;;;;;5086097;28;20428;-73
2021/07/10 10:13:26;;;;;;;6.30;5.80;;;;;;;;;;5089293;28;20902;-74
2021/07/10 10:15:52;;;;;;;6.80;6.20;;;;;;;;;;5089299;28;20412;-73
2021/07/10 10:18:24;;;;;;;5.77;5.37;;;;;;;;;;5088856;28;20937;-73
2021/07/10 10:20:52;;;;;;;5.87;5.37;;;;;;;;;;5089325;28;21072;-73
2021/07/10 10:23:19;;;;;;;4.73;4.43;;;;;;;;;;5089220;28;20425;-73
2021/07/10 10:25:45;;;;;;;5.43;5.03;;;;;;;;;;5089330;28;20442;-73
2021/07/10 10:28:19;;;;;;;4.83;4.43;;;;;;;;;;5085460;28;20406;-74
2021/07/10 10:30:49;;;;;;;5.67;4.23;;;;;;;;;;5069035;28;20434;-75
2021/07/10 10:33:15;;;;;;;4.30;4.00;;;;;;;;;;5069135;28;20489;-73
2021/07/10 10:35:41;;;;;;;4.57;4.27;;;;;;;;;;5069101;28;20420;-75
2021/07/10 10:38:08;;;;;;;4.30;4.00;;;;;;;;;;5068914;28;20449;-72
2021/07/10 10:40:34;;;;;;;5.40;5.00;;;;;;;;;;5068879;28;20496;-73
2021/07/10 10:43:01;;;;;;;4.47;4.07;;;;;;;;;;5069166;28;20422;-73
2021/07/10 10:45:31;;;;;;;4.50;4.20;;;;;;;;;;5068945;28;20468;-73
2021/07/10 10:47:57;;;;;;;5.33;4.67;;;;;;;;;;5068745;28;20466;-74
2021/07/10 10:50:30;;;;;;;6.00;5.60;;;;;;;;;;5072796;28;20470;-73
2021/07/10 10:52:58;;;;;;;5.27;4.87;;;;;;;;;;5072910;28;20418;-74
2021/07/10 10:55:33;;;;;;;5.47;5.07;;;;;;;;;;5072568;28;21075;-75
2021/07/10 10:57:59;;;;;;;5.37;4.97;;;;;;;;;;5082788;28;20504;-73
2021/07/10 11:00:25;;;;;;;4.73;4.33;;;;;;;;;;5089758;28;20449;-76
2021/07/10 11:02:52;;;;;;;4.67;4.37;;;;;;;;;;5071238;28;20511;-74
2021/07/10 11:05:42;;;;;;;4.90;4.53;;;;;;;;;;5072145;28;20505;-73
2021/07/10 11:08:20;;;;;;;4.03;3.73;;;;;;;;;;5066363;28;20441;-73
2021/07/10 11:10:56;;;;;;;4.40;4.10;;;;;;;;;;5072262;28;20425;-75
2021/07/10 11:13:29;;;;;;;4.63;3.70;;;;;;;;;;5072201;28;20767;-72
2021/07/10 11:16:05;;;;;;;5.63;4.83;;;;;;;;;;5072367;28;21223;-74
2021/07/10 11:18:48;;;;;;;4.40;4.10;;;;;;;;;;5071658;28;20511;-74
2021/07/10 11:21:48;;;;;;;4.00;3.70;;;;;;;;;;5072185;28;20899;-72
2021/07/10 11:24:19;;;;;;;4.47;4.07;;;;;;;;;;5040253;28;20428;-75
2021/07/10 11:26:57;;;;;;;4.67;4.37;;;;;;;;;;5059295;28;20497;-75
2021/07/10 11:29:27;;;;;;;5.07;4.53;;;;;;;;;;5071837;28;20441;-73
2021/07/10 11:31:54;;;;;;;5.33;4.93;;;;;;;;;;5072038;28;20438;-72
2021/07/10 11:34:33;;;;;;;4.87;4.50;;;;;;;;;;5071720;28;20917;-74
2021/07/10 11:37:00;;;;;;;4.97;4.57;;;;;;;;;;5071413;28;20933;-74
2021/07/10 11:39:26;;;;;;;5.30;4.80;;;;;;;;;;5071490;28;20418;-74
2021/07/10 11:41:53;;;;;;;4.80;4.40;;;;;;;;;;5071928;28;20430;-73
2021/07/10 11:44:21;;;;;;;5.13;4.73;;;;;;;;;;5071733;28;20519;-73
2021/07/10 11:46:55;;;;;;;6.17;5.50;;;;;;;;;;5071195;28;20466;-73
2021/07/10 11:49:40;;;;;;;5.17;4.67;;;;;;;;;;5071686;28;20513;-74
2021/07/10 11:52:10;;;;;;;5.33;4.90;;;;;;;;;;5070165;28;20414;-75
2021/07/10 11:54:37;;;;;;;5.10;4.70;;;;;;;;;;5071538;28;20414;-74
2021/07/10 11:57:04;;;;;;;4.67;4.23;;;;;;;;;;5073569;28;20502;-75
2021/07/10 11:59:30;;;;;;;4.70;4.33;;;;;;;;;;5091451;28;20422;-73
2021/07/10 12:01:56;;;;;;;5.43;5.03;;;;;;;;;;5090149;28;21293;-72
2021/07/10 12:04:22;;;;;;;4.23;3.93;;;;;;;;;;5091553;28;20495;-71
2021/07/10 12:06:48;;;;;;;4.43;4.13;;;;;;;;;;5090881;28;20515;-71
2021/07/10 12:09:14;;;;;;;3.97;3.67;;;;;;;;;;5091544;28;20414;-74
2021/07/10 12:11:40;;;;;;;4.23;3.93;;;;;;;;;;5088145;28;20579;-74
2021/07/10 12:14:06;;;;;;;4.03;3.73;;;;;;;;;;5091420;28;20410;-73
2021/07/10 12:16:32;;;;;;;4.00;3.70;;;;;;;;;;5090931;28;20779;-74
2021/07/10 12:18:58;;;;;;;4.20;3.90;;;;;;;;;;5090985;28;20626;-74
2021/07/10 12:21:25;;;;;;;4.30;4.00;;;;;;;;;;5091466;28;20850;-73
2021/07/10 12:23:55;;;;;;;3.97;3.67;;;;;;;;;;5091317;28;20428;-71
2021/07/10 12:26:21;;;;;;;4.47;4.17;;;;;;;;;;5091380;28;20465;-74
2021/07/10 12:28:53;;;;;;;4.20;3.90;;;;;;;;;;5082142;28;20419;-74
2021/07/10 12:31:27;;;;;;;5.03;4.63;;;;;;;;;;5070487;28;20435;-73
2021/07/10 12:33:54;;;;;;;5.23;4.80;;;;;;;;;;5070854;28;20403;-72
2021/07/10 12:36:37;;;;;;;4.43;4.13;;;;;;;;;;5070882;28;20426;-74
2021/07/10 12:39:03;;;;;;;5.00;4.60;;;;;;;;;;5070621;28;20449;-72
2021/07/10 12:41:32;;;;;;;4.67;4.37;;;;;;;;;;5070630;28;20466;-73
2021/07/10 12:44:13;;;;;;;4.93;4.43;;;;;;;;;;5070417;28;20421;-71
2021/07/10 12:46:48;;;;;;;4.70;4.30;;;;;;;;;;5069838;28;20462;-74
2021/07/10 12:49:14;;;;;;;4.20;3.80;;;;;;;;;;5070351;28;20415;-74
2021/07/10 12:51:40;;;;;;;4.23;3.93;;;;;;;;;;5070527;28;21251;-71
2021/07/10 12:54:26;;;;;;;4.13;3.83;;;;;;;;;;5070269;28;21068;-73
2021/07/10 12:56:55;;;;;;;3.87;3.57;;;;;;;;;;5051522;28;20471;-73
2021/07/10 12:59:21;;;;;;;4.20;3.90;;;;;;;;;;5090493;28;20420;-73
2021/07/10 13:01:49;;;;;;;4.43;4.13;;;;;;;;;;5089066;28;20433;-71
2021/07/10 13:04:15;;;;;;;4.70;4.40;;;;;;;;;;5090588;28;21119;-73
2021/07/10 13:06:45;;;;;;;4.70;4.30;;;;;;;;;;5073089;28;20469;-73
2021/07/10 13:09:11;;;;;;;3.90;3.60;;;;;;;;;;5070265;28;20640;-74
2021/07/10 13:11:47;;;;;;;4.30;4.00;;;;;;;;;;5069320;28;20469;-73
2021/07/10 13:14:20;;;;;;;4.50;4.20;;;;;;;;;;5070085;28;20863;-75
2021/07/10 13:16:46;;;;;;;4.03;3.63;;;;;;;;;;5069439;28;20426;-74
2021/07/10 13:19:13;;;;;;;4.83;4.43;;;;;;;;;;5069626;28;20982;-75
2021/07/10 13:21:38;;;;;;;5.07;4.67;;;;;;;;;;5069717;28;20439;-73
2021/07/10 13:24:14;;;;;;;4.50;4.20;;;;;;;;;;5069833;28;20790;-75
2021/07/10 13:26:43;;;;;;;4.20;3.90;;;;;;;;;;5069356;28;20458;-70
2021/07/10 13:29:18;;;;;;;5.00;4.60;;;;;;;;;;5069528;28;20425;-73
2021/07/10 13:31:59;;;;;;;4.90;4.50;;;;;;;;;;5069730;28;20433;-75
2021/07/10 13:34:26;;;;;;;5.40;5.00;;;;;;;;;;5069655;28;20406;-74
2021/07/10 13:36:53;;;;;;;5.20;4.80;;;;;;;;;;5069377;28;20501;-73
2021/07/10 13:39:29;;;;;;;5.13;4.73;;;;;;;;;;5069382;28;20418;-74
2021/07/10 13:42:05;;;;;;;5.20;4.80;;;;;;;;;;5069564;28;20547;-74
2021/07/10 13:44:35;;;;;;;5.13;4.63;;;;;;;;;;5069370;28;20448;-74
2021/07/10 13:47:01;;;;;;;4.63;4.33;;;;;;;;;;5069040;28;20543;-72
2021/07/10 13:49:33;;;;;;;4.60;4.20;;;;;;;;;;5069432;28;20418;-74
2021/07/10 13:52:00;;;;;;;5.53;5.13;;;;;;;;;;5069497;28;20421;-73
2021/07/10 13:54:31;;;;;;;4.90;4.50;;;;;;;;;;5069422;28;20418;-73
2021/07/10 13:57:15;;;;;;;5.17;4.60;;;;;;;;;;5071126;28;20414;-73
2021/07/10 13:59:54;;;;;;;4.90;4.50;;;;;;;;;;5089746;28;20450;-75
2021/07/10 14:02:20;;;;;;;4.73;4.33;;;;;;;;;;5089680;28;20406;-73
2021/07/10 14:04:57;;;;;;;6.20;5.60;;;;;;;;;;5088108;28;20946;-73
2021/07/10 14:07:23;;;;;;;5.63;5.20;;;;;;;;;;5089097;28;20650;-75
2021/07/10 14:09:49;;;;;;;5.13;4.63;;;;;;;;;;5086488;28;20427;-73
2021/07/10 14:12:15;;;;;;;5.10;4.70;;;;;;;;;;5089611;28;20417;-73
2021/07/10 14:14:41;;;;;;;4.87;4.57;;;;;;;;;;5089473;28;20413;-72
2021/07/10 14:17:07;;;;;;;5.20;4.80;;;;;;;;;;5088977;28;20413;-75
2021/07/10 14:19:34;;;;;;;6.20;5.60;;;;;;;;;;5089206;28;20409;-72
2021/07/10 14:22:00;;;;;;;4.30;4.00;;;;;;;;;;5089404;28;20895;-73
2021/07/10 14:24:26;;;;;;;6.00;5.50;;;;;;;;;;5093412;28;20455;-74
2021/07/10 14:26:52;;;;;;;7.33;6.73;;;;;;;;;;5092961;28;20510;-72
2021/07/10 14:29:18;;;;;;;5.80;5.40;;;;;;;;;;5080332;28;20406;-74
2021/07/10 14:31:44;;;;;;;5.37;4.97;;;;;;;;;;5080675;28;20444;-71
2021/07/10 14:34:10;;;;;;;5.63;5.13;;;;;;;;;;5093141;28;20500;-76